Time;durP1;ratioP1;P1;durP2;ratioP2;P2;SDS_P1;SDS_P2;PMS_P1;PMS_P2;Temp;Humidity;BMP_temperature;BMP_pressure;BME280_temperature;BME280_humidity;BME280_pressure;Samples;Min_cycle;Max_cycle;Signal;HPM_P1;HPM_P2
2024/04/26 00:03:14;;;;;;;15.80;10.00;;;;;;;0.83;75.12;99139.60;218232;1257;141105;-67
2024/04/26 00:08:18;;;;;;;14.60;7.40;;;;;;;0.78;75.00;99138.86;217608;1260;139997;-65
2024/04/26 00:13:20;;;;;;;13.10;9.40;;;;;;;0.69;74.94;99130.85;219903;1257;140904;-69
2024/04/26 00:18:21;;;;;;;10.00;8.30;;;;;;;0.64;75.19;99138.05;219852;1258;140444;-68
2024/04/26 00:23:23;;;;;;;12.70;9.80;;;;;;;0.66;75.45;99140.66;220167;1258;140806;-69
2024/04/26 00:28:24;;;;;;;12.20;9.70;;;;;;;0.71;75.89;99137.24;220081;1257;140418;-69
2024/04/26 00:33:26;;;;;;;12.70;8.80;;;;;;;0.77;75.74;99129.91;217315;1257;141632;-69
2024/04/26 00:38:27;;;;;;;10.40;9.40;;;;;;;0.78;75.67;99128.33;218346;1260;142156;-68
2024/04/26 00:43:30;;;;;;;14.40;9.30;;;;;;;0.71;75.44;99131.80;217068;1262;140434;-68
2024/04/26 00:48:31;;;;;;;14.20;9.80;;;;;;;0.59;75.57;99132.45;217543;1257;139828;-68
2024/04/26 00:53:33;;;;;;;18.90;11.40;;;;;;;0.57;76.05;99132.19;217378;1257;140123;-68
2024/04/26 00:58:36;;;;;;;19.40;10.00;;;;;;;0.59;76.33;99132.98;217059;1260;140576;-68
2024/04/26 01:03:38;;;;;;;13.10;9.90;;;;;;;0.55;76.00;99137.05;217467;1257;141086;-67
2024/04/26 01:08:40;;;;;;;17.00;10.10;;;;;;;0.42;76.03;99139.79;217587;1255;140951;-68
2024/04/26 01:13:41;;;;;;;17.10;10.10;;;;;;;0.35;76.21;99141.43;217732;1256;141070;-67
2024/04/26 01:18:43;;;;;;;16.20;9.90;;;;;;;0.32;76.54;99142.41;218018;1257;140663;-68
2024/04/26 01:23:45;;;;;;;14.50;9.80;;;;;;;0.30;76.54;99142.52;217520;1256;140559;-67
2024/04/26 01:28:46;;;;;;;15.00;10.40;;;;;;;0.27;76.57;99151.48;217579;1256;141123;-67
2024/04/26 01:33:48;;;;;;;17.10;10.50;;;;;;;0.19;76.45;99155.05;217323;1257;140305;-66
2024/04/26 01:38:50;;;;;;;11.10;8.40;;;;;;;0.16;76.73;99151.98;217341;1256;140783;-67
2024/04/26 01:43:53;;;;;;;21.20;11.10;;;;;;;0.05;76.56;99159.00;217904;1256;139953;-65
2024/04/26 01:48:55;;;;;;;16.20;11.00;;;;;;;0.01;76.91;99160.52;217444;1256;140058;-67
2024/04/26 01:53:58;;;;;;;18.70;11.80;;;;;;;0.07;77.57;99160.75;217867;1257;140509;-67
2024/04/26 01:59:00;;;;;;;16.00;11.70;;;;;;;0.13;77.45;99161.05;217598;1258;140312;-67
2024/04/26 02:04:02;;;;;;;18.70;12.60;;;;;;;0.14;77.80;99165.48;219316;1258;140041;-66
2024/04/26 02:09:03;;;;;;;17.80;9.10;;;;;;;0.09;77.46;99172.45;218509;1256;142337;-67
2024/04/26 02:14:05;;;;;;;21.70;13.00;;;;;;;0.05;77.43;99180.55;217530;1257;205820;-66
2024/04/26 02:19:06;;;;;;;19.60;11.90;;;;;;;0.05;77.90;99182.85;218760;1257;140157;-67
2024/04/26 02:24:08;;;;;;;14.80;9.60;;;;;;;0.07;78.54;99187.77;219194;1256;140375;-66
2024/04/26 02:29:10;;;;;;;13.90;10.00;;;;;;;0.12;78.69;99184.41;217303;1260;140105;-67
2024/04/26 02:34:15;;;;;;;19.60;10.30;;;;;;;0.19;79.22;99188.79;217517;1257;139943;-67
2024/04/26 02:39:17;;;;;;;12.50;10.60;;;;;;;0.24;79.32;99192.38;217865;1257;140786;-67
2024/04/26 02:44:19;;;;;;;18.20;12.40;;;;;;;0.29;79.56;99187.73;217625;1260;140261;-66
2024/04/26 02:49:21;;;;;;;21.20;14.00;;;;;;;0.33;79.43;99195.01;217801;1257;140788;-67
2024/04/26 02:54:22;;;;;;;20.80;14.60;;;;;;;0.32;79.28;99188.23;217515;1256;140563;-67
2024/04/26 02:59:24;;;;;;;18.00;12.90;;;;;;;0.32;79.50;99194.77;217815;1260;140662;-66
2024/04/26 03:04:26;;;;;;;19.30;14.10;;;;;;;0.23;79.26;99189.05;217489;1260;140686;-66
2024/04/26 03:09:28;;;;;;;18.80;12.60;;;;;;;0.17;79.22;99192.39;217365;1259;141644;-66
2024/04/26 03:14:30;;;;;;;22.60;13.00;;;;;;;0.12;79.22;99192.20;217475;1257;141011;-65
2024/04/26 03:19:31;;;;;;;13.90;11.90;;;;;;;0.11;79.39;99190.22;217400;1257;140353;-64
2024/04/26 03:24:33;;;;;;;19.50;12.40;;;;;;;0.11;79.40;99192.86;217442;1258;141123;-66
2024/04/26 03:29:36;;;;;;;18.10;12.90;;;;;;;0.12;79.59;99195.98;218075;1257;140298;-66
2024/04/26 03:34:38;;;;;;;15.80;10.20;;;;;;;0.16;79.79;99197.37;218038;1256;141037;-69
2024/04/26 03:39:40;;;;;;;14.20;10.70;;;;;;;0.21;79.63;99201.88;217521;1260;140385;-66
2024/04/26 03:44:42;;;;;;;15.10;10.70;;;;;;;0.23;79.45;99207.92;217661;1259;139973;-64
2024/04/26 03:49:43;;;;;;;13.10;10.30;;;;;;;0.40;79.19;99215.36;219167;1256;142131;-65
2024/04/26 03:54:45;;;;;;;18.70;11.60;;;;;;;0.77;79.05;99220.66;217741;1259;141566;-68
2024/04/26 03:59:47;;;;;;;16.90;10.70;;;;;;;1.06;79.54;99223.60;220254;1256;140914;-70
2024/04/26 04:04:48;;;;;;;12.90;9.00;;;;;;;1.60;79.03;99226.73;217767;1259;208206;-68
2024/04/26 04:09:50;;;;;;;12.20;9.30;;;;;;;1.65;79.64;99229.25;217442;1258;140651;-68
2024/04/26 04:14:51;;;;;;;11.30;9.20;;;;;;;1.62;79.15;99230.11;217314;1257;142128;-68
2024/04/26 04:19:52;;;;;;;20.70;12.70;;;;;;;1.63;79.48;99232.02;217394;1257;140441;-68
2024/04/26 04:24:54;;;;;;;12.50;8.50;;;;;;;1.65;79.53;99232.00;217602;1256;140667;-69
2024/04/26 04:29:57;;;;;;;21.90;9.70;;;;;;;1.74;79.88;99237.13;218197;1256;140244;-69
2024/04/26 04:34:59;;;;;;;14.70;9.30;;;;;;;1.80;79.65;99238.19;217977;1256;139764;-69
2024/04/26 04:40:01;;;;;;;10.00;6.90;;;;;;;1.91;79.56;99243.02;217589;1259;140202;-69
2024/04/26 04:45:03;;;;;;;15.50;8.90;;;;;;;2.02;79.91;99245.18;218449;1257;140561;-70
2024/04/26 04:50:05;;;;;;;11.30;7.30;;;;;;;2.14;79.83;99242.86;218723;1257;141381;-72
2024/04/26 04:55:06;;;;;;;14.10;8.70;;;;;;;2.30;80.02;99245.13;218089;1257;139710;-69
2024/04/26 05:00:08;;;;;;;11.40;8.00;;;;;;;2.46;79.74;99249.13;218601;1259;140418;-69
2024/04/26 05:05:10;;;;;;;17.20;8.10;;;;;;;2.60;80.10;99249.37;218095;1259;140277;-67
2024/04/26 05:10:11;;;;;;;15.20;9.10;;;;;;;2.77;80.08;99253.00;217828;1255;139663;-66
2024/04/26 05:15:13;;;;;;;14.10;8.50;;;;;;;2.93;80.16;99258.62;217557;1255;140590;-66
2024/04/26 05:20:15;;;;;;;15.90;7.90;;;;;;;3.11;80.20;99263.10;218187;1255;140620;-69
2024/04/26 05:25:18;;;;;;;12.90;9.40;;;;;;;3.30;80.05;99270.33;217927;1257;140422;-67
2024/04/26 05:30:20;;;;;;;10.60;8.40;;;;;;;3.52;79.97;99274.66;218064;1255;140042;-69
2024/04/26 05:35:23;;;;;;;11.80;7.80;;;;;;;4.28;79.68;99277.33;217431;1258;140299;-68
2024/04/26 05:40:27;;;;;;;13.90;10.10;;;;;;;4.98;78.57;99280.60;217498;1256;140833;-68
2024/04/26 05:45:32;;;;;;;8.20;6.60;;;;;;;5.38;78.55;99283.05;217982;1257;210550;-70
2024/04/26 05:50:36;;;;;;;12.90;8.20;;;;;;;5.95;77.41;99285.51;217416;1256;141689;-69
2024/04/26 05:55:38;;;;;;;8.40;7.10;;;;;;;6.23;77.38;99287.55;217705;1257;139891;-68
2024/04/26 06:00:42;;;;;;;11.20;7.40;;;;;;;6.32;76.76;99294.16;220328;1255;151345;-69
2024/04/26 06:05:44;;;;;;;12.30;7.90;;;;;;;6.38;75.95;99297.48;219949;1256;141117;-68
2024/04/26 06:10:45;;;;;;;12.30;8.80;;;;;;;6.40;76.37;99301.96;217459;1260;140155;-69
2024/04/26 06:15:47;;;;;;;14.40;9.70;;;;;;;6.50;76.19;99301.88;217122;1259;140846;-69
2024/04/26 06:20:49;;;;;;;11.10;8.20;;;;;;;6.60;76.47;99303.70;217685;1259;140913;-68
2024/04/26 06:25:50;;;;;;;10.40;7.80;;;;;;;6.81;76.12;99309.11;217131;1257;142008;-68
2024/04/26 06:31:00;;;;;;;10.20;7.10;;;;;;;6.99;76.14;99308.97;217199;1260;140151;-69
2024/04/26 06:36:07;;;;;;;11.60;8.00;;;;;;;7.22;75.59;99316.17;217262;1257;139770;-70
2024/04/26 06:41:08;;;;;;;27.20;12.60;;;;;;;7.52;75.06;99311.89;218286;1257;141138;-68
2024/04/26 06:46:10;;;;;;;9.00;6.10;;;;;;;8.40;74.91;99313.80;217205;1259;140512;-73
2024/04/26 06:51:12;;;;;;;7.60;5.50;;;;;;;9.70;73.75;99318.66;217152;1258;140105;-70
2024/04/26 06:56:13;;;;;;;8.50;7.40;;;;;;;11.22;71.20;99321.39;217333;1257;139847;-69
2024/04/26 07:01:15;;;;;;;8.40;5.70;;;;;;;12.85;69.96;99318.48;218024;1258;140366;-68
2024/04/26 07:06:16;;;;;;;6.10;5.30;;;;;;;14.75;68.38;99328.63;217343;1257;141922;-67
2024/04/26 07:11:20;;;;;;;6.60;5.20;;;;;;;15.79;65.85;99329.40;217423;1261;139660;-67
2024/04/26 07:16:22;;;;;;;5.60;4.50;;;;;;;16.30;64.27;99330.14;217417;1260;139630;-69
2024/04/26 07:21:24;;;;;;;7.30;5.00;;;;;;;16.51;61.98;99334.05;218136;1257;139650;-69
2024/04/26 07:26:26;;;;;;;6.30;5.70;;;;;;;16.38;60.42;99336.98;217681;1258;139501;-69
2024/04/26 07:31:28;;;;;;;6.20;5.10;;;;;;;16.19;59.35;99336.98;218181;1257;140048;-69
2024/04/26 07:36:30;;;;;;;5.80;4.80;;;;;;;16.44;59.48;99338.27;218341;1259;140656;-68
2024/04/26 07:41:31;;;;;;;5.30;4.00;;;;;;;16.58;58.79;99342.81;217573;1258;140584;-70
2024/04/26 07:46:33;;;;;;;6.80;5.00;;;;;;;16.82;58.32;99340.89;217410;1256;144879;-68
2024/04/26 07:51:35;;;;;;;9.20;5.00;;;;;;;16.87;57.11;99337.55;217273;1257;139405;-71
2024/04/26 07:56:36;;;;;;;5.90;4.30;;;;;;;16.80;57.02;99336.22;217831;1255;140299;-69
2024/04/26 08:01:38;;;;;;;6.50;3.90;;;;;;;17.18;57.10;99339.23;217652;1259;139131;-68
2024/04/26 08:06:39;;;;;;;4.60;3.80;;;;;;;17.12;54.65;99338.02;217743;1259;139858;-69
2024/04/26 08:11:42;;;;;;;4.10;3.50;;;;;;;16.96;54.86;99338.80;217477;1260;139288;-69
2024/04/26 08:16:43;;;;;;;7.00;4.20;;;;;;;16.88;53.97;99340.27;217411;1257;139510;-68
2024/04/26 08:21:45;;;;;;;5.60;3.20;;;;;;;16.90;53.85;99343.33;217470;1260;140197;-69
2024/04/26 08:26:47;;;;;;;3.20;3.00;;;;;;;17.13;53.86;99344.73;218348;1256;141401;-71
2024/04/26 08:31:49;;;;;;;4.30;3.20;;;;;;;17.17;53.22;99343.40;217912;1257;140215;-69
2024/04/26 08:36:51;;;;;;;7.10;4.00;;;;;;;17.14;51.85;99340.33;217352;1258;139195;-71
2024/04/26 08:41:55;;;;;;;2.90;2.70;;;;;;;16.81;51.32;99344.16;217401;1260;139130;-71
2024/04/26 08:46:56;;;;;;;3.40;3.10;;;;;;;16.78;51.44;99345.89;217655;1258;139724;-69
2024/04/26 08:52:01;;;;;;;3.90;2.90;;;;;;;16.82;50.74;99346.70;217551;1260;139501;-71
2024/04/26 08:57:03;;;;;;;3.20;2.40;;;;;;;16.87;50.27;99348.95;217933;1258;141066;-70
2024/04/26 09:02:04;;;;;;;3.00;2.60;;;;;;;17.14;50.39;99345.65;217453;1259;141050;-69
2024/04/26 09:07:08;;;;;;;3.90;2.80;;;;;;;17.28;49.42;99344.20;217557;1257;139772;-70
2024/04/26 09:12:10;;;;;;;3.30;2.80;;;;;;;17.28;49.07;99343.92;217951;1259;139973;-72
2024/04/26 09:17:11;;;;;;;6.80;3.40;;;;;;;17.03;48.10;99338.28;217737;1258;140659;-70
2024/04/26 09:22:16;;;;;;;2.00;1.60;;;;;;;16.58;47.98;99340.62;217430;1258;140350;-70
2024/04/26 09:27:17;;;;;;;3.20;1.70;;;;;;;16.26;47.85;99340.23;217424;1257;140036;-70
2024/04/26 09:32:21;;;;;;;3.30;1.70;;;;;;;15.68;47.02;99337.14;217324;1259;139448;-69
2024/04/26 09:37:24;;;;;;;4.00;2.50;;;;;;;15.10;46.63;99346.09;217583;1258;139723;-69
2024/04/26 09:42:27;;;;;;;1.70;1.50;;;;;;;14.80;46.90;99346.86;217274;1261;140620;-69
2024/04/26 09:47:28;;;;;;;1.50;1.40;;;;;;;14.62;47.10;99348.56;220252;1257;140642;-68
2024/04/26 09:52:30;;;;;;;2.30;1.70;;;;;;;15.07;48.08;99345.23;218649;1259;139707;-70
2024/04/26 09:57:32;;;;;;;2.50;1.70;;;;;;;15.95;47.70;99334.87;218732;1258;139730;-70
2024/04/26 10:02:35;;;;;;;1.40;1.30;;;;;;;16.72;47.33;99328.17;218451;1259;140382;-71
2024/04/26 10:07:38;;;;;;;1.90;1.70;;;;;;;17.06;46.05;99333.95;217636;1257;139812;-69
2024/04/26 10:12:40;;;;;;;1.30;1.20;;;;;;;17.25;45.26;99336.10;217542;1257;140054;-70
2024/04/26 10:17:49;;;;;;;1.70;1.60;;;;;;;17.38;45.14;99333.45;217339;1257;140470;-69
2024/04/26 10:23:05;;;;;;;2.30;2.20;;;;;;;16.75;44.37;99337.82;218194;1257;140180;-70
2024/04/26 10:28:14;;;;;;;1.80;1.70;;;;;;;16.47;44.84;99332.16;218322;1260;140165;-69
2024/04/26 10:33:17;;;;;;;2.10;1.70;;;;;;;16.16;44.80;99331.92;217546;1261;140149;-68
2024/04/26 10:38:20;;;;;;;3.30;1.80;;;;;;;16.15;44.68;99327.48;217275;1261;139713;-68
2024/04/26 10:43:25;;;;;;;2.90;2.10;;;;;;;16.23;44.86;99321.49;217158;1261;139705;-69
2024/04/26 10:48:35;;;;;;;1.70;1.60;;;;;;;16.43;45.07;99324.39;217818;1256;140041;-69
2024/04/26 10:53:38;;;;;;;2.00;1.60;;;;;;;16.44;44.45;99317.82;217402;1257;139954;-70
2024/04/26 10:58:41;;;;;;;1.90;1.80;;;;;;;16.66;43.98;99307.55;217390;1256;139773;-70
2024/04/26 11:03:50;;;;;;;1.50;1.40;;;;;;;16.74;42.92;99310.56;218001;1256;139061;-69
2024/04/26 11:09:02;;;;;;;2.90;1.90;;;;;;;16.77;43.17;99309.50;217493;1260;139243;-70
2024/04/26 11:14:05;;;;;;;3.00;1.80;;;;;;;16.72;43.04;99312.03;217665;1260;139582;-70
2024/04/26 11:19:07;;;;;;;3.40;1.70;;;;;;;16.30;42.36;99313.14;217477;1257;140144;-68
2024/04/26 11:24:09;;;;;;;3.20;1.90;;;;;;;16.29;42.81;99317.52;217169;1259;140251;-71
2024/04/26 11:29:13;;;;;;;4.60;2.10;;;;;;;16.88;43.09;99315.99;217698;1259;140062;-70
2024/04/26 11:34:17;;;;;;;1.60;1.10;;;;;;;16.88;42.74;99313.10;217650;1256;139721;-69
2024/04/26 11:39:20;;;;;;;1.50;1.40;;;;;;;16.53;42.20;99310.20;217060;1259;284141;-70
2024/04/26 11:44:22;;;;;;;1.10;1.10;;;;;;;16.41;42.28;99315.74;217560;1259;141906;-69
2024/04/26 11:49:27;;;;;;;1.60;1.10;;;;;;;16.38;42.36;99320.45;219735;1257;140062;-70
2024/04/26 11:54:28;;;;;;;3.60;1.60;;;;;;;16.23;41.94;99318.00;219546;1257;140145;-70
2024/04/26 11:59:30;;;;;;;1.50;1.30;;;;;;;16.03;41.68;99327.52;218056;1257;139803;-69
2024/04/26 12:04:35;;;;;;;3.00;1.80;;;;;;;16.18;42.14;99323.32;217357;1257;139447;-72
2024/04/26 12:09:37;;;;;;;1.50;1.10;;;;;;;16.20;42.20;99328.98;217667;1257;140225;-69
2024/04/26 12:14:39;;;;;;;1.20;1.10;;;;;;;16.07;41.86;99334.05;217289;1259;142644;-70
2024/04/26 12:19:40;;;;;;;3.10;1.30;;;;;;;16.03;41.99;99337.25;217560;1255;139635;-68
2024/04/26 12:24:46;;;;;;;5.00;1.40;;;;;;;15.92;41.68;99335.87;217727;1256;139429;-70
2024/04/26 12:29:48;;;;;;;1.00;1.00;;;;;;;15.76;42.06;99339.58;217346;1259;139644;-70
2024/04/26 12:34:50;;;;;;;3.40;1.60;;;;;;;15.51;41.41;99338.68;217509;1259;139756;-69
2024/04/26 12:39:52;;;;;;;1.40;0.70;;;;;;;15.32;42.01;99346.64;217793;1258;139900;-69
2024/04/26 12:44:54;;;;;;;1.40;1.30;;;;;;;15.31;42.15;99346.92;217558;1257;139203;-69
2024/04/26 12:49:56;;;;;;;1.50;1.40;;;;;;;15.26;42.30;99345.94;217654;1257;139511;-69
2024/04/26 12:54:58;;;;;;;1.70;1.60;;;;;;;15.34;42.47;99343.03;217737;1257;139734;-69
2024/04/26 13:00:00;;;;;;;1.30;1.10;;;;;;;15.50;42.56;99338.84;217239;1259;140238;-69
2024/04/26 13:05:02;;;;;;;1.20;1.10;;;;;;;15.85;42.61;99335.61;218407;1259;140622;-69
2024/04/26 13:10:04;;;;;;;1.10;1.00;;;;;;;16.10;42.83;99330.58;217515;1259;139598;-68
2024/04/26 13:15:06;;;;;;;1.00;0.90;;;;;;;16.30;42.32;99328.70;217688;1257;140206;-69
2024/04/26 13:20:08;;;;;;;1.50;1.40;;;;;;;16.47;42.11;99328.77;217424;1259;140007;-71
2024/04/26 13:25:09;;;;;;;1.30;1.00;;;;;;;16.68;41.98;99323.85;217652;1259;140078;-70
2024/04/26 13:30:12;;;;;;;1.90;1.60;;;;;;;16.89;41.71;99319.64;217591;1259;140605;-69
2024/04/26 13:35:13;;;;;;;1.10;1.10;;;;;;;17.25;41.30;99320.80;217542;1257;139565;-69
2024/04/26 13:40:16;;;;;;;2.00;1.60;;;;;;;17.54;40.96;99315.40;217529;1261;139559;-70
2024/04/26 13:45:17;;;;;;;1.80;1.10;;;;;;;17.52;40.77;99312.41;217346;1259;140520;-70
2024/04/26 13:50:20;;;;;;;2.20;1.10;;;;;;;17.27;40.26;99316.25;218159;1257;139464;-67
2024/04/26 13:55:22;;;;;;;1.40;1.30;;;;;;;17.29;40.52;99311.32;217403;1259;141568;-68
2024/04/26 14:00:24;;;;;;;1.70;1.60;;;;;;;17.31;40.24;99306.17;217713;1257;139903;-68
2024/04/26 14:05:25;;;;;;;2.20;1.70;;;;;;;17.02;39.59;99305.66;217452;1259;139334;-70
2024/04/26 14:10:27;;;;;;;2.70;1.50;;;;;;;16.61;39.88;99303.67;217408;1259;140711;-67
2024/04/26 14:15:29;;;;;;;3.20;1.40;;;;;;;16.43;40.22;99309.87;217532;1261;206389;-69
2024/04/26 14:20:30;;;;;;;1.70;1.10;;;;;;;16.34;40.28;99305.80;217357;1257;140640;-68
2024/04/26 14:25:33;;;;;;;1.00;1.00;;;;;;;16.35;40.20;99307.30;217438;1259;140246;-68
2024/04/26 14:30:35;;;;;;;0.80;0.80;;;;;;;16.44;40.28;99306.02;217635;1257;140566;-68
2024/04/26 14:35:38;;;;;;;3.00;1.00;;;;;;;16.74;40.31;99307.76;217464;1258;140827;-69
2024/04/26 14:40:40;;;;;;;1.40;1.10;;;;;;;16.76;40.19;99302.95;217389;1258;139777;-69
2024/04/26 14:45:42;;;;;;;1.30;1.10;;;;;;;16.58;39.90;99303.27;217262;1259;140520;-69
2024/04/26 14:50:44;;;;;;;3.80;1.50;;;;;;;16.41;39.79;99308.31;217679;1259;139916;-68
2024/04/26 14:55:46;;;;;;;1.30;1.00;;;;;;;16.31;39.86;99305.77;217453;1261;140677;-69
2024/04/26 15:00:47;;;;;;;1.50;0.90;;;;;;;16.32;40.12;99306.57;217147;1260;139329;-69
2024/04/26 15:05:49;;;;;;;1.70;1.20;;;;;;;16.14;39.82;99301.72;217214;1258;231700;-71
2024/04/26 15:10:50;;;;;;;1.00;0.90;;;;;;;15.91;40.19;99309.86;217472;1260;139912;-69
2024/04/26 15:15:53;;;;;;;1.70;1.00;;;;;;;15.75;40.53;99306.74;217928;1261;140960;-69
2024/04/26 15:20:54;;;;;;;1.30;1.00;;;;;;;15.53;40.34;99307.39;217468;1257;139901;-71
2024/04/26 15:25:56;;;;;;;0.90;0.90;;;;;;;15.39;40.61;99301.23;218286;1257;139583;-68
2024/04/26 15:30:57;;;;;;;1.00;1.00;;;;;;;15.23;40.50;99305.34;217836;1259;141788;-67
2024/04/26 15:35:59;;;;;;;1.30;1.20;;;;;;;14.99;40.65;99312.36;218320;1257;141759;-68
2024/04/26 15:41:00;;;;;;;2.20;1.20;;;;;;;14.83;40.89;99311.45;218545;1257;139850;-69
2024/04/26 15:46:01;;;;;;;2.40;1.40;;;;;;;14.80;41.17;99308.91;218151;1261;139799;-65
2024/04/26 15:51:03;;;;;;;1.30;1.20;;;;;;;14.81;41.56;99303.98;217350;1259;140875;-68
2024/04/26 15:56:04;;;;;;;1.70;1.60;;;;;;;14.82;41.71;99304.09;217113;1262;139493;-69
2024/04/26 16:01:06;;;;;;;1.30;1.20;;;;;;;14.81;41.98;99301.98;217595;1261;140299;-68
2024/04/26 16:06:07;;;;;;;1.90;1.60;;;;;;;14.79;42.07;99304.20;217619;1259;139675;-67
2024/04/26 16:11:09;;;;;;;1.70;1.40;;;;;;;14.71;42.14;99299.77;217350;1263;140726;-67
2024/04/26 16:16:10;;;;;;;2.90;1.60;;;;;;;14.71;42.81;99303.30;217074;1257;140196;-69
2024/04/26 16:21:12;;;;;;;1.80;1.50;;;;;;;14.67;42.77;99302.04;217571;1257;140245;-69
2024/04/26 16:26:22;;;;;;;1.40;1.30;;;;;;;14.62;43.01;99304.64;217715;1258;139103;-69
2024/04/26 16:31:23;;;;;;;2.40;1.30;;;;;;;14.50;42.87;99306.30;217347;1256;139745;-68
2024/04/26 16:36:27;;;;;;;1.70;1.60;;;;;;;14.35;43.14;99305.97;217169;1260;141159;-67
2024/04/26 16:41:28;;;;;;;1.30;1.30;;;;;;;14.27;43.68;99305.66;217995;1258;139269;-68
2024/04/26 16:46:31;;;;;;;7.90;2.60;;;;;;;14.20;43.48;99306.94;217413;1258;139434;-68
2024/04/26 16:51:33;;;;;;;2.40;2.00;;;;;;;14.12;43.90;99308.91;217627;1257;139596;-68
2024/04/26 16:56:37;;;;;;;2.10;2.00;;;;;;;14.06;44.38;99308.34;217338;1260;139784;-72
2024/04/26 17:01:42;;;;;;;2.90;2.30;;;;;;;14.03;44.60;99311.94;217259;1264;139117;-68
2024/04/26 17:06:44;;;;;;;2.40;2.20;;;;;;;13.99;44.89;99313.27;217311;1261;140386;-68
2024/04/26 17:11:46;;;;;;;4.20;2.40;;;;;;;13.94;45.39;99316.91;217341;1257;140000;-69
2024/04/26 17:16:47;;;;;;;8.20;2.80;;;;;;;13.84;45.70;99318.39;217541;1261;139419;-69
2024/04/26 17:21:49;;;;;;;8.00;4.20;;;;;;;13.70;45.81;99321.23;217573;1260;141405;-67
2024/04/26 17:26:51;;;;;;;15.30;4.50;;;;;;;13.58;46.05;99319.73;217335;1257;139981;-67
2024/04/26 17:31:52;;;;;;;7.20;4.50;;;;;;;13.42;46.45;99322.21;217393;1261;139680;-68
2024/04/26 17:36:54;;;;;;;6.20;3.70;;;;;;;13.35;47.81;99326.27;217265;1258;139677;-69
2024/04/26 17:41:57;;;;;;;7.50;3.90;;;;;;;13.26;48.78;99326.44;217305;1258;140235;-69
2024/04/26 17:46:59;;;;;;;6.60;4.00;;;;;;;13.09;48.57;99330.42;217333;1258;139947;-70
2024/04/26 17:52:01;;;;;;;8.20;4.70;;;;;;;12.89;48.38;99331.10;217859;1260;139732;-70
2024/04/26 17:57:02;;;;;;;10.40;5.90;;;;;;;12.68;48.21;99331.09;217387;1260;140752;-70
2024/04/26 18:02:04;;;;;;;8.00;5.30;;;;;;;12.54;48.40;99333.89;217299;1257;140340;-72
2024/04/26 18:07:06;;;;;;;7.10;5.60;;;;;;;12.41;49.12;99338.67;217351;1261;139335;-70
2024/04/26 18:12:07;;;;;;;7.00;5.50;;;;;;;12.29;49.85;99340.80;217413;1257;140199;-69
2024/04/26 18:17:09;;;;;;;9.50;5.60;;;;;;;12.13;50.50;99346.63;217461;1257;140562;-69
2024/04/26 18:22:10;;;;;;;10.70;7.20;;;;;;;11.97;51.04;99353.04;217283;1261;140259;-70
2024/04/26 18:27:13;;;;;;;18.50;8.10;;;;;;;11.80;51.44;99361.58;217231;1257;140088;-68
2024/04/26 18:32:14;;;;;;;12.00;7.50;;;;;;;11.61;51.64;99367.48;217276;1257;139916;-69
2024/04/26 18:37:16;;;;;;;8.50;5.10;;;;;;;11.40;52.14;99369.43;217162;1257;139370;-69
2024/04/26 18:42:20;;;;;;;7.40;4.40;;;;;;;11.17;52.62;99374.55;217581;1257;139451;-69
2024/04/26 18:47:23;;;;;;;5.10;4.20;;;;;;;10.97;53.11;99381.85;217565;1256;150173;-70
2024/04/26 18:52:24;;;;;;;8.10;4.70;;;;;;;10.81;54.19;99384.65;217929;1260;140667;-70
2024/04/26 18:57:26;;;;;;;8.70;5.10;;;;;;;10.70;55.28;99388.38;217426;1257;139747;-70
2024/04/26 19:02:28;;;;;;;8.70;5.90;;;;;;;10.57;55.82;99392.77;217316;1257;139617;-70
2024/04/26 19:07:31;;;;;;;16.90;7.30;;;;;;;10.49;56.55;99390.50;217214;1257;140041;-70
2024/04/26 19:12:32;;;;;;;27.00;5.60;;;;;;;10.41;57.11;99393.27;217407;1260;151137;-69
2024/04/26 19:17:34;;;;;;;12.90;7.20;;;;;;;10.36;57.59;99397.20;219477;1257;139747;-70
2024/04/26 19:22:36;;;;;;;14.20;7.40;;;;;;;10.35;57.61;99395.57;217353;1257;139912;-70
2024/04/26 19:27:37;;;;;;;11.40;8.40;;;;;;;10.36;57.93;99398.48;219448;1257;140788;-70
2024/04/26 19:32:39;;;;;;;18.70;9.60;;;;;;;10.37;57.31;99396.73;219636;1257;143001;-71
2024/04/26 19:37:40;;;;;;;17.90;8.50;;;;;;;10.39;56.97;99402.20;217270;1257;139424;-69
2024/04/26 19:42:42;;;;;;;14.10;7.70;;;;;;;10.39;56.66;99400.22;218427;1257;140296;-70
2024/04/26 19:47:43;;;;;;;12.90;7.90;;;;;;;10.41;56.86;99403.88;217478;1260;139611;-69
2024/04/26 19:58:06;;;;;;;11.90;7.60;;;;;;;10.40;56.99;99403.64;217636;1259;139596;-72
2024/04/26 20:03:07;;;;;;;13.00;7.90;;;;;;;10.35;57.33;99402.45;217991;1257;140430;-70
2024/04/26 20:08:09;;;;;;;14.50;8.60;;;;;;;10.30;57.62;99406.20;217405;1259;209694;-70
2024/04/26 20:13:11;;;;;;;10.70;7.40;;;;;;;10.24;57.73;99404.71;217338;1256;139990;-70
2024/04/26 20:18:13;;;;;;;12.80;8.50;;;;;;;10.18;58.00;99404.08;217436;1257;139942;-70
2024/04/26 20:23:15;;;;;;;12.00;7.40;;;;;;;10.15;58.22;99402.33;217322;1257;140493;-69
2024/04/26 20:28:18;;;;;;;19.50;10.30;;;;;;;10.10;58.05;99404.63;217222;1260;140612;-70
2024/04/26 20:33:21;;;;;;;11.60;8.20;;;;;;;10.05;58.05;99404.80;217293;1260;139686;-69
2024/04/26 20:38:24;;;;;;;12.40;9.30;;;;;;;10.03;58.07;99407.66;217313;1257;140223;-70
2024/04/26 20:43:26;;;;;;;15.50;8.90;;;;;;;10.03;58.34;99408.15;217304;1260;139477;-69
2024/04/26 20:48:28;;;;;;;16.40;9.30;;;;;;;10.03;58.18;99412.05;217557;1260;139461;-68
2024/04/26 20:53:30;;;;;;;15.40;10.50;;;;;;;10.03;57.93;99412.20;217413;1260;140123;-69
2024/04/26 20:58:33;;;;;;;15.10;9.60;;;;;;;10.04;58.13;99413.87;217560;1257;140143;-67
2024/04/26 21:03:35;;;;;;;17.80;10.20;;;;;;;10.03;57.86;99418.96;218028;1257;139810;-71
2024/04/26 21:08:37;;;;;;;9.40;7.90;;;;;;;10.04;58.09;99426.77;217447;1257;140411;-69
2024/04/26 21:13:38;;;;;;;12.50;8.20;;;;;;;10.05;58.10;99426.88;218039;1257;139316;-72
2024/04/26 21:18:44;;;;;;;13.70;9.40;;;;;;;10.05;58.03;99428.23;219679;1257;141766;-70
2024/04/26 21:23:46;;;;;;;13.70;9.00;;;;;;;10.06;58.14;99430.10;218148;1257;140291;-71
2024/04/26 21:28:48;;;;;;;15.30;10.10;;;;;;;10.03;58.05;99426.75;218014;1258;140777;-72
2024/04/26 21:33:50;;;;;;;12.10;9.10;;;;;;;10.02;58.20;99422.30;217468;1257;140415;-71
2024/04/26 21:38:51;;;;;;;13.40;8.80;;;;;;;10.01;58.27;99421.89;217354;1257;140322;-71
2024/04/26 21:43:53;;;;;;;12.50;7.80;;;;;;;9.97;58.25;99419.60;218206;1257;139606;-70
2024/04/26 21:48:55;;;;;;;12.30;8.50;;;;;;;9.96;58.38;99423.30;217327;1260;139731;-69
2024/04/26 21:53:56;;;;;;;15.30;8.00;;;;;;;9.97;58.43;99429.29;217521;1260;139951;-69
2024/04/26 21:58:58;;;;;;;11.20;6.80;;;;;;;9.96;58.47;99431.70;217446;1260;140350;-68
2024/04/26 22:03:59;;;;;;;12.60;7.10;;;;;;;9.91;58.53;99430.60;217136;1260;140460;-69
2024/04/26 22:09:00;;;;;;;10.80;7.80;;;;;;;9.86;58.59;99432.25;217835;1256;139791;-70
2024/04/26 22:14:02;;;;;;;13.40;8.50;;;;;;;9.83;58.75;99434.10;217335;1257;139313;-71
2024/04/26 22:19:03;;;;;;;21.50;9.10;;;;;;;9.80;58.99;99440.77;217334;1257;140432;-71
2024/04/26 22:24:05;;;;;;;13.10;8.70;;;;;;;9.77;58.93;99441.36;218257;1260;140461;-70
2024/04/26 22:29:06;;;;;;;13.20;10.10;;;;;;;9.73;59.09;99442.25;217567;1258;140296;-73
2024/04/26 22:34:11;;;;;;;15.00;10.00;;;;;;;9.73;59.23;99445.28;217328;1260;140686;-72
2024/04/26 22:39:13;;;;;;;11.30;7.90;;;;;;;9.74;59.45;99449.16;218017;1258;139675;-72
2024/04/26 22:44:15;;;;;;;10.80;8.20;;;;;;;9.73;59.24;99454.82;217415;1260;140137;-72
2024/04/26 22:49:16;;;;;;;13.30;7.10;;;;;;;9.70;59.24;99454.75;217529;1257;140465;-72
2024/04/26 22:54:17;;;;;;;12.40;6.10;;;;;;;9.67;59.17;99454.09;218638;1257;139593;-71
2024/04/26 22:59:19;;;;;;;9.40;6.20;;;;;;;9.63;59.17;99456.18;219164;1258;140308;-71
2024/04/26 23:04:21;;;;;;;10.80;7.70;;;;;;;9.58;59.22;99451.99;218743;1257;139614;-72
2024/04/26 23:09:22;;;;;;;12.70;7.70;;;;;;;9.54;59.17;99453.02;217329;1259;140245;-72